Time;durP1;ratioP1;P1;durP2;ratioP2;P2;SDS_P1;SDS_P2;PMS_P1;PMS_P2;Temp;Humidity;BMP_temperature;BMP_pressure;BME280_temperature;BME280_humidity;BME280_pressure;Samples;Min_cycle;Max_cycle;Signal;HPM_P1;HPM_P2
2021/06/15 00:00:52;;;;;;;4.57;4.17;;;17.90;99.90;;;;;;4999343;28;20643;-67
2021/06/15 00:03:18;;;;;;;3.93;3.63;;;17.90;99.90;;;;;;4993373;28;20227;-67
2021/06/15 00:05:44;;;;;;;4.70;4.20;;;17.80;99.90;;;;;;5000374;28;20602;-68
2021/06/15 00:08:16;;;;;;;5.70;4.63;;;17.70;99.90;;;;;;4992813;28;20257;-67
2021/06/15 00:10:42;;;;;;;4.82;4.40;;;17.70;99.90;;;;;;4992614;28;20187;-68
2021/06/15 00:13:09;;;;;;;6.47;4.97;;;17.80;99.90;;;;;;4990357;28;20183;-67
2021/06/15 00:15:36;;;;;;;4.60;4.25;;;17.60;99.90;;;;;;5005466;28;20554;-68
2021/06/15 00:18:02;;;;;;;4.97;4.47;;;17.60;99.90;;;;;;4997724;28;20214;-68
2021/06/15 00:20:28;;;;;;;6.03;4.35;;;17.50;99.90;;;;;;4999039;28;20212;-68
2021/06/15 00:22:54;;;;;;;4.63;4.23;;;17.50;99.90;;;;;;5000784;28;20199;-67
2021/06/15 00:25:20;;;;;;;5.22;4.72;;;17.30;99.90;;;;;;4994991;28;20438;-67
2021/06/15 00:27:48;;;;;;;5.30;4.57;;;17.50;99.90;;;;;;4991746;28;20208;-67
2021/06/15 00:30:16;;;;;;;4.88;4.47;;;17.30;99.90;;;;;;5001822;28;20231;-67
2021/06/15 00:32:42;;;;;;;4.70;4.25;;;17.30;99.90;;;;;;4989227;28;20591;-67
2021/06/15 00:35:08;;;;;;;4.53;4.22;;;17.30;99.90;;;;;;4988727;28;20330;-67
2021/06/15 00:37:35;;;;;;;5.85;4.40;;;17.30;99.90;;;;;;4989569;28;20286;-69
2021/06/15 00:40:01;;;;;;;5.57;4.88;;;17.40;99.90;;;;;;4989979;28;20206;-67
2021/06/15 00:42:26;;;;;;;6.70;4.90;;;17.20;99.90;;;;;;4996189;28;20652;-68
2021/06/15 00:44:52;;;;;;;6.50;5.10;;;17.30;99.90;;;;;;4998326;28;20190;-67
2021/06/15 00:47:18;;;;;;;5.23;4.83;;;17.20;99.90;;;;;;4989653;28;20199;-68
2021/06/15 00:49:44;;;;;;;4.90;4.40;;;17.20;99.90;;;;;;5001490;28;20181;-68
2021/06/15 00:52:10;;;;;;;4.33;3.93;;;17.30;99.90;;;;;;4991852;28;20452;-67
2021/06/15 00:54:36;;;;;;;5.27;4.77;;;17.20;99.90;;;;;;4997792;28;20274;-68
2021/06/15 00:57:03;;;;;;;5.05;4.55;;;17.20;99.90;;;;;;4996168;28;20551;-68
2021/06/15 00:59:29;;;;;;;4.88;4.47;;;17.10;99.90;;;;;;4994816;28;20532;-69
2021/06/15 01:01:55;;;;;;;5.53;5.03;;;17.10;99.90;;;;;;4992079;28;20262;-68
2021/06/15 01:04:21;;;;;;;6.50;4.80;;;17.30;99.90;;;;;;4989886;28;20657;-68
2021/06/15 01:06:55;;;;;;;4.60;4.30;;;17.30;99.90;;;;;;4993874;28;20867;-67
2021/06/15 01:09:28;;;;;;;5.03;4.50;;;17.10;99.90;;;;;;4998032;28;20608;-69
2021/06/15 01:11:56;;;;;;;5.13;4.72;;;17.40;99.90;;;;;;4989619;28;20183;-67
2021/06/15 01:14:47;;;;;;;5.50;4.57;;;17.10;99.90;;;;;;4998613;28;20657;-69
2021/06/15 01:17:18;;;;;;;5.35;4.85;;;17.00;99.90;;;;;;4997332;28;20617;-68
2021/06/15 01:20:04;;;;;;;5.75;5.25;;;17.20;99.90;;;;;;4997496;28;20190;-68
2021/06/15 01:22:38;;;;;;;5.20;4.68;;;17.00;99.90;;;;;;4983475;28;20203;-67
2021/06/15 01:25:25;;;;;;;5.47;4.60;;;17.00;99.90;;;;;;4994445;28;20702;-68
2021/06/15 01:27:52;;;;;;;4.60;4.20;;;17.00;99.90;;;;;;5004947;28;20234;-67
2021/06/15 01:30:22;;;;;;;5.28;4.70;;;17.10;99.90;;;;;;4996678;28;20187;-68
2021/06/15 01:32:56;;;;;;;8.10;4.70;;;17.20;99.90;;;;;;4996022;28;20325;-67
2021/06/15 01:35:23;;;;;;;4.80;4.30;;;17.00;99.90;;;;;;5001273;28;20251;-68
2021/06/15 01:37:55;;;;;;;5.57;5.07;;;16.90;99.90;;;;;;4994430;28;20254;-68
2021/06/15 01:40:32;;;;;;;6.50;4.25;;;17.00;99.90;;;;;;4991014;28;20665;-67
2021/06/15 01:43:02;;;;;;;5.47;4.97;;;17.10;99.90;;;;;;4999444;28;20207;-68
2021/06/15 01:45:39;;;;;;;5.90;5.30;;;16.80;99.90;;;;;;4991135;28;20181;-67
2021/06/15 01:48:06;;;;;;;4.75;4.10;;;16.60;99.90;;;;;;4997075;28;20199;-68
2021/06/15 01:50:38;;;;;;;5.10;4.60;;;16.50;99.90;;;;;;4994301;28;20180;-68
2021/06/15 01:53:09;;;;;;;6.40;5.90;;;16.70;99.90;;;;;;4989665;28;20188;-66
2021/06/15 01:55:37;;;;;;;7.20;5.43;;;16.70;99.90;;;;;;4989096;28;20187;-66
2021/06/15 01:58:04;;;;;;;5.55;5.05;;;16.90;99.90;;;;;;4998224;28;20221;-67
2021/06/15 02:00:31;;;;;;;5.03;4.63;;;16.70;99.90;;;;;;4998221;28;20190;-67
2021/06/15 02:03:00;;;;;;;4.90;4.50;;;16.60;99.90;;;;;;5000192;28;20207;-67
2021/06/15 02:05:39;;;;;;;5.03;4.53;;;16.50;99.90;;;;;;4992800;28;20220;-68
2021/06/15 02:08:06;;;;;;;6.03;4.80;;;16.60;99.90;;;;;;5007510;28;20202;-67
2021/06/15 02:10:35;;;;;;;4.85;4.40;;;16.70;99.90;;;;;;4999128;28;20183;-67
2021/06/15 02:13:01;;;;;;;5.47;4.97;;;16.20;99.90;;;;;;5004894;28;20187;-67
2021/06/15 02:15:28;;;;;;;5.25;4.80;;;16.50;99.90;;;;;;4998082;28;20903;-66
2021/06/15 02:17:56;;;;;;;5.30;4.80;;;16.50;99.90;;;;;;4994904;28;20212;-67
2021/06/15 02:20:26;;;;;;;6.60;4.68;;;16.50;99.90;;;;;;5001419;28;20191;-67
2021/06/15 02:22:55;;;;;;;6.00;5.03;;;16.60;99.90;;;;;;4994499;28;20223;-67
2021/06/15 02:25:32;;;;;;;7.03;5.00;;;16.70;99.90;;;;;;5000683;28;20274;-66
2021/06/15 02:27:58;;;;;;;5.78;5.15;;;16.40;99.90;;;;;;5000893;28;20237;-67
2021/06/15 02:30:24;;;;;;;5.73;5.07;;;16.40;99.90;;;;;;4992699;28;20209;-67
2021/06/15 02:32:51;;;;;;;5.68;5.20;;;16.20;99.90;;;;;;4999580;28;20187;-67
2021/06/15 02:35:22;;;;;;;5.53;4.85;;;16.30;99.90;;;;;;5000540;28;20191;-67
2021/06/15 02:37:56;;;;;;;5.15;4.65;;;16.30;99.90;;;;;;5001011;28;20700;-67
2021/06/15 02:40:26;;;;;;;5.05;4.55;;;16.30;99.90;;;;;;4996940;28;20232;-67
2021/06/15 02:42:53;;;;;;;6.65;4.85;;;16.10;99.90;;;;;;4996427;28;20301;-68
2021/06/15 02:45:21;;;;;;;6.88;4.97;;;16.50;99.90;;;;;;5000999;28;20554;-68
2021/06/15 02:47:52;;;;;;;8.00;5.22;;;16.20;99.90;;;;;;5007489;28;20199;-69
2021/06/15 02:50:20;;;;;;;6.07;5.20;;;16.30;99.90;;;;;;4992131;28;20653;-67
2021/06/15 02:52:46;;;;;;;6.10;5.32;;;16.00;99.90;;;;;;5011624;28;20188;-68
2021/06/15 02:55:16;;;;;;;5.40;4.83;;;16.20;99.90;;;;;;5003119;28;20880;-68
2021/06/15 02:57:42;;;;;;;5.78;4.88;;;16.20;99.90;;;;;;5008757;28;20218;-68
2021/06/15 03:00:09;;;;;;;5.35;4.65;;;16.20;99.90;;;;;;4993431;28;20190;-67
2021/06/15 03:02:35;;;;;;;5.53;5.00;;;16.40;99.90;;;;;;5001217;28;20199;-69
2021/06/15 03:05:03;;;;;;;6.33;5.83;;;15.60;99.90;;;;;;5002717;28;20176;-67
2021/06/15 03:07:32;;;;;;;5.30;4.80;;;16.30;99.90;;;;;;4984615;28;20201;-67
2021/06/15 03:10:01;;;;;;;5.65;4.70;;;16.10;99.90;;;;;;5001728;28;20302;-67
2021/06/15 03:12:29;;;;;;;5.75;5.20;;;16.00;99.90;;;;;;5000112;28;20202;-67
2021/06/15 03:15:07;;;;;;;6.25;5.68;;;16.20;99.90;;;;;;4997000;28;20191;-67
2021/06/15 03:17:35;;;;;;;5.30;4.95;;;15.90;99.90;;;;;;4996286;28;20207;-67
2021/06/15 03:20:07;;;;;;;6.55;5.50;;;15.90;99.90;;;;;;4992166;28;20669;-68
2021/06/15 03:22:57;;;;;;;6.20;5.60;;;16.00;99.90;;;;;;5001852;28;20215;-67
2021/06/15 03:25:30;;;;;;;5.50;5.00;;;15.70;99.90;;;;;;4991438;28;20176;-67
2021/06/15 03:28:00;;;;;;;5.82;5.32;;;15.80;99.90;;;;;;4983846;28;20673;-67
2021/06/15 03:30:28;;;;;;;5.57;5.07;;;15.80;99.90;;;;;;4999189;28;20183;-67
2021/06/15 03:32:59;;;;;;;5.80;5.25;;;15.80;99.90;;;;;;4991456;28;20229;-67
2021/06/15 03:35:29;;;;;;;5.25;4.85;;;16.00;99.90;;;;;;5003754;28;20333;-68
2021/06/15 03:38:01;;;;;;;5.47;4.68;;;16.20;99.90;;;;;;4993616;28;20242;-67
2021/06/15 03:40:29;;;;;;;5.05;4.55;;;16.10;99.90;;;;;;5000859;28;20194;-68
2021/06/15 03:42:56;;;;;;;6.47;5.40;;;16.20;99.90;;;;;;4996560;28;20200;-67
2021/06/15 03:45:28;;;;;;;5.63;5.13;;;15.90;99.90;;;;;;4998743;28;20234;-66
2021/06/15 03:47:55;;;;;;;5.72;5.15;;;15.90;99.90;;;;;;4989358;28;20253;-67
2021/06/15 03:50:22;;;;;;;8.57;7.30;;;15.70;99.90;;;;;;4982294;28;20207;-67
2021/06/15 03:52:52;;;;;;;6.07;4.78;;;16.00;99.90;;;;;;4986842;28;20184;-68
2021/06/15 03:55:20;;;;;;;7.28;6.13;;;15.80;99.90;;;;;;4991473;28;20188;-68
2021/06/15 03:57:48;;;;;;;6.10;5.47;;;16.20;99.90;;;;;;4998034;28;20211;-68
2021/06/15 04:00:20;;;;;;;6.45;5.75;;;16.00;99.90;;;;;;4994742;28;20183;-67
2021/06/15 04:02:48;;;;;;;6.05;5.20;;;16.00;99.90;;;;;;4991072;28;20212;-67
2021/06/15 04:05:16;;;;;;;8.88;5.22;;;16.00;99.90;;;;;;4989794;28;20270;-67
2021/06/15 04:07:44;;;;;;;7.00;4.85;;;16.00;99.90;;;;;;4994995;28;20210;-68
2021/06/15 04:10:12;;;;;;;5.72;5.22;;;16.10;99.90;;;;;;5003716;28;20654;-68
2021/06/15 04:12:38;;;;;;;7.57;6.97;;;16.10;99.90;;;;;;4992404;28;20207;-68
2021/06/15 04:15:07;;;;;;;7.70;6.15;;;16.20;99.90;;;;;;4991100;28;20215;-65
2021/06/15 04:17:41;;;;;;;5.80;5.30;;;16.30;99.90;;;;;;4985237;28;20224;-69
2021/06/15 04:20:09;;;;;;;6.28;5.68;;;15.90;99.90;;;;;;4985616;28;20206;-66
2021/06/15 04:22:41;;;;;;;5.53;5.10;;;16.50;99.90;;;;;;5004717;28;20258;-64
2021/06/15 04:25:10;;;;;;;5.40;5.00;;;16.40;99.90;;;;;;5008674;28;20179;-66
2021/06/15 04:27:36;;;;;;;5.70;4.85;;;16.40;99.90;;;;;;4985707;28;20246;-67
2021/06/15 04:30:05;;;;;;;5.88;5.32;;;16.30;99.90;;;;;;5000024;28;20208;-68
2021/06/15 04:32:51;;;;;;;5.88;4.72;;;16.80;99.90;;;;;;4984633;28;20206;-67
2021/06/15 04:35:24;;;;;;;4.80;4.40;;;16.70;99.90;;;;;;4983925;28;20613;-67
2021/06/15 04:37:53;;;;;;;5.75;5.20;;;16.90;99.90;;;;;;4999498;28;20207;-67
2021/06/15 04:40:24;;;;;;;6.20;5.70;;;16.90;99.90;;;;;;4986893;28;20562;-67
2021/06/15 04:42:52;;;;;;;5.75;5.00;;;17.00;99.90;;;;;;4992796;28;20203;-67
2021/06/15 04:45:31;;;;;;;6.10;5.28;;;17.10;99.90;;;;;;4993923;28;20190;-67
2021/06/15 04:48:06;;;;;;;6.93;5.82;;;17.20;99.90;;;;;;5004511;28;20207;-68
2021/06/15 04:50:33;;;;;;;11.57;9.80;;;17.20;99.90;;;;;;4984396;28;20179;-67
2021/06/15 04:53:03;;;;;;;5.40;4.70;;;16.80;99.90;;;;;;4988837;28;20188;-67
2021/06/15 04:55:34;;;;;;;5.80;5.28;;;17.40;99.90;;;;;;4989304;28;20210;-68
2021/06/15 04:58:02;;;;;;;6.07;5.57;;;17.70;99.90;;;;;;4988660;28;20322;-67
2021/06/15 05:00:28;;;;;;;6.15;5.55;;;17.70;99.90;;;;;;4996125;28;20230;-59
2021/06/15 05:02:55;;;;;;;5.53;5.03;;;17.70;99.90;;;;;;4981861;28;20298;-59
2021/06/15 05:05:22;;;;;;;5.28;4.78;;;17.70;99.90;;;;;;4986922;28;20187;-59
2021/06/15 05:07:58;;;;;;;5.90;5.35;;;17.70;99.90;;;;;;4983601;28;20253;-59
2021/06/15 05:10:25;;;;;;;8.18;5.53;;;17.80;99.90;;;;;;4984512;28;20941;-59
2021/06/15 05:12:53;;;;;;;5.35;4.93;;;17.80;99.90;;;;;;4984018;28;20180;-60
2021/06/15 05:15:23;;;;;;;6.40;5.45;;;18.00;99.90;;;;;;4983474;28;20190;-58
2021/06/15 05:17:51;;;;;;;5.40;5.00;;;18.10;99.90;;;;;;4983332;28;20707;-59
2021/06/15 05:20:19;;;;;;;6.63;5.20;;;18.30;99.90;;;;;;4982619;28;20194;-60
2021/06/15 05:22:49;;;;;;;5.85;4.93;;;18.40;99.90;;;;;;4982173;28;20277;-60
2021/06/15 05:25:21;;;;;;;5.55;5.00;;;18.50;99.90;;;;;;4984060;28;20198;-60
2021/06/15 05:27:47;;;;;;;5.07;4.57;;;18.50;99.90;;;;;;4998754;28;20707;-60
2021/06/15 05:30:13;;;;;;;5.53;4.88;;;18.60;99.90;;;;;;4983559;28;20184;-60
2021/06/15 05:32:38;;;;;;;6.27;5.17;;;18.80;99.90;;;;;;4984275;28;20198;-58
2021/06/15 05:35:04;;;;;;;5.57;5.00;;;18.90;99.90;;;;;;4986943;28;20199;-58
2021/06/15 05:37:30;;;;;;;6.00;5.03;;;19.00;99.90;;;;;;4993183;28;20866;-59
2021/06/15 05:39:56;;;;;;;9.30;5.80;;;19.10;99.90;;;;;;4986177;28;20233;-58
2021/06/15 05:42:22;;;;;;;5.60;5.00;;;19.10;99.90;;;;;;4988597;28;20243;-59
2021/06/15 05:44:48;;;;;;;6.72;5.47;;;19.20;99.90;;;;;;4985650;28;20526;-59
2021/06/15 05:47:14;;;;;;;8.03;5.47;;;19.40;99.90;;;;;;4996949;28;20738;-59
2021/06/15 05:49:40;;;;;;;6.50;5.90;;;19.40;99.90;;;;;;4992666;28;20179;-58
2021/06/15 05:52:11;;;;;;;6.40;4.73;;;19.60;99.90;;;;;;4989921;28;20664;-58
2021/06/15 05:54:38;;;;;;;7.90;5.00;;;19.70;99.80;;;;;;5004949;28;20212;-58
2021/06/15 05:57:05;;;;;;;4.93;4.43;;;19.80;99.60;;;;;;4994330;28;20992;-59
2021/06/15 05:59:31;;;;;;;6.97;4.80;;;20.00;99.40;;;;;;4987082;28;20188;-59
2021/06/15 06:01:57;;;;;;;4.60;4.20;;;20.10;99.00;;;;;;4992630;28;20207;-58
2021/06/15 06:04:26;;;;;;;6.50;5.30;;;20.20;98.30;;;;;;5005507;28;20442;-59
2021/06/15 06:09:38;;;;;;;4.95;4.45;;;20.40;97.40;;;;;;4988909;28;20186;-57
2021/06/15 06:12:05;;;;;;;5.63;5.13;;;20.60;97.30;;;;;;4983529;28;20301;-59
2021/06/15 06:14:30;;;;;;;7.30;5.10;;;20.70;97.20;;;;;;4995142;28;20239;-59
2021/06/15 06:16:56;;;;;;;5.80;5.20;;;20.80;96.30;;;;;;4997859;28;20211;-60
2021/06/15 06:19:22;;;;;;;6.00;5.20;;;20.90;96.10;;;;;;4992038;28;20261;-60
2021/06/15 06:21:49;;;;;;;7.10;5.47;;;21.00;96.00;;;;;;4991914;28;20350;-60
2021/06/15 06:24:17;;;;;;;5.43;4.93;;;21.10;96.00;;;;;;4996102;28;20179;-60
2021/06/15 06:26:43;;;;;;;6.93;5.97;;;21.20;95.50;;;;;;4985797;28;20275;-60
2021/06/15 06:29:08;;;;;;;6.20;5.63;;;21.30;95.40;;;;;;4993808;28;20963;-58
2021/06/15 06:31:34;;;;;;;6.53;5.50;;;21.40;95.00;;;;;;4992177;28;20187;-60
2021/06/15 06:34:00;;;;;;;6.43;4.80;;;21.50;94.80;;;;;;4987253;28;20269;-60
2021/06/15 06:36:27;;;;;;;6.40;5.27;;;21.60;94.50;;;;;;4989775;28;20245;-59
2021/06/15 06:38:52;;;;;;;8.05;5.00;;;21.70;94.20;;;;;;4998903;28;20199;-60
2021/06/15 06:41:19;;;;;;;5.70;5.20;;;21.80;94.20;;;;;;4990466;28;20259;-59
2021/06/15 06:43:46;;;;;;;5.78;5.28;;;21.90;94.30;;;;;;4990844;28;20179;-62
2021/06/15 06:46:11;;;;;;;8.88;5.95;;;22.00;94.10;;;;;;4990451;28;20203;-60
2021/06/15 06:48:37;;;;;;;6.37;5.50;;;22.10;93.80;;;;;;4995328;28;20629;-59
2021/06/15 06:51:03;;;;;;;7.17;5.87;;;22.30;93.80;;;;;;4994189;28;20187;-59
2021/06/15 06:53:31;;;;;;;7.10;5.83;;;22.60;93.30;;;;;;4999303;28;20450;-59
2021/06/15 06:55:57;;;;;;;9.13;5.37;;;22.70;93.10;;;;;;4988658;28;20461;-61
2021/06/15 06:58:23;;;;;;;6.43;5.27;;;23.00;92.70;;;;;;4990390;28;21289;-59
2021/06/15 07:00:49;;;;;;;6.87;5.30;;;23.30;92.10;;;;;;4985700;28;20524;-59
2021/06/15 07:03:20;;;;;;;7.43;6.27;;;23.80;91.60;;;;;;4989359;28;20226;-60
2021/06/15 07:05:46;;;;;;;6.90;6.03;;;25.40;88.10;;;;;;4989811;28;20179;-59
2021/06/15 07:08:12;;;;;;;7.40;5.10;;;27.90;78.60;;;;;;4992018;28;21078;-59
2021/06/15 07:10:37;;;;;;;5.13;4.63;;;29.60;69.70;;;;;;4991292;28;20185;-59
2021/06/15 07:13:03;;;;;;;6.90;5.07;;;32.40;63.50;;;;;;4990831;28;20183;-60
2021/06/15 07:15:29;;;;;;;6.30;5.47;;;35.30;54.60;;;;;;5000380;28;20650;-58
2021/06/15 07:17:55;;;;;;;5.87;5.27;;;35.50;50.30;;;;;;4989368;28;20696;-61
2021/06/15 07:20:21;;;;;;;7.53;4.83;;;38.40;46.10;;;;;;4992178;28;20502;-59
2021/06/15 07:22:47;;;;;;;7.60;4.90;;;40.40;40.00;;;;;;4996299;28;20472;-59
2021/06/15 07:25:13;;;;;;;5.67;4.87;;;41.00;37.70;;;;;;4990958;28;20208;-60
2021/06/15 07:27:39;;;;;;;9.40;5.10;;;42.40;35.70;;;;;;5000301;28;20210;-60
2021/06/15 07:30:06;;;;;;;5.33;4.83;;;43.30;33.50;;;;;;4986896;28;20440;-59
2021/06/15 07:32:32;;;;;;;5.90;4.90;;;43.20;32.30;;;;;;4986494;28;20202;-59
2021/06/15 07:34:58;;;;;;;6.50;5.50;;;41.40;33.10;;;;;;4996662;28;20449;-59
2021/06/15 07:37:23;;;;;;;7.77;5.30;;;41.40;34.50;;;;;;4985975;28;20262;-59
2021/06/15 07:39:50;;;;;;;4.97;4.50;;;43.00;32.80;;;;;;5012551;28;20188;-59
2021/06/15 07:42:15;;;;;;;6.63;5.10;;;43.90;31.00;;;;;;4988343;28;20467;-59
2021/06/15 07:44:41;;;;;;;5.30;4.50;;;44.80;29.90;;;;;;4994681;28;20444;-61
2021/06/15 07:47:07;;;;;;;5.83;5.33;;;44.20;30.00;;;;;;4992084;28;20227;-59
2021/06/15 07:49:32;;;;;;;10.40;5.30;;;43.10;31.30;;;;;;4982663;28;20184;-59
2021/06/15 07:51:59;;;;;;;7.67;5.90;;;41.80;32.10;;;;;;4993874;28;20186;-59
2021/06/15 07:54:24;;;;;;;7.97;5.07;;;41.80;33.10;;;;;;4989075;28;20176;-59
2021/06/15 07:56:50;;;;;;;4.77;4.37;;;42.40;32.10;;;;;;4994524;28;20547;-59
2021/06/15 07:59:19;;;;;;;5.90;5.20;;;43.40;31.30;;;;;;4988491;28;20278;-59
2021/06/15 08:01:44;;;;;;;5.80;5.30;;;43.90;30.50;;;;;;4988043;28;20869;-60
2021/06/15 08:04:14;;;;;;;6.17;5.57;;;43.30;31.40;;;;;;4987439;28;20469;-60
2021/06/15 08:06:40;;;;;;;6.60;5.87;;;43.90;30.60;;;;;;4991930;28;20204;-60
2021/06/15 08:09:06;;;;;;;10.20;6.03;;;43.40;30.80;;;;;;4992199;28;20453;-60
2021/06/15 08:11:32;;;;;;;7.63;5.60;;;42.00;32.00;;;;;;4987263;28;20637;-60
2021/06/15 08:13:57;;;;;;;7.10;6.00;;;41.60;33.10;;;;;;4999616;28;20437;-60
2021/06/15 08:16:23;;;;;;;8.97;5.90;;;43.40;31.10;;;;;;4997313;28;20454;-59
2021/06/15 08:18:49;;;;;;;7.60;4.80;;;44.50;30.00;;;;;;4994259;28;20189;-60
2021/06/15 08:21:15;;;;;;;5.00;4.60;;;43.20;29.80;;;;;;4987244;28;21192;-61
2021/06/15 08:23:41;;;;;;;8.60;5.17;;;43.30;30.20;;;;;;4993536;28;20211;-60
2021/06/15 08:26:07;;;;;;;5.53;5.03;;;42.30;30.90;;;;;;4991265;28;20190;-60
2021/06/15 08:28:32;;;;;;;5.27;4.83;;;42.70;30.50;;;;;;4994761;28;20461;-60
2021/06/15 08:30:59;;;;;;;5.03;4.63;;;43.00;29.80;;;;;;4992230;28;20438;-61
2021/06/15 08:33:25;;;;;;;5.93;5.30;;;43.00;30.00;;;;;;4997194;28;20199;-60
2021/06/15 08:35:51;;;;;;;5.57;4.90;;;41.60;29.80;;;;;;4990035;28;20534;-61
2021/06/15 08:38:18;;;;;;;5.23;4.17;;;42.30;30.90;;;;;;4998656;28;20613;-59
2021/06/15 08:40:47;;;;;;;9.50;5.00;;;42.20;30.30;;;;;;4985532;28;20187;-60
2021/06/15 08:43:17;;;;;;;4.20;3.80;;;42.20;30.00;;;;;;4998250;28;20552;-59
2021/06/15 08:45:43;;;;;;;5.40;4.47;;;41.70;30.00;;;;;;5003504;28;20841;-62
2021/06/15 08:48:11;;;;;;;3.97;3.50;;;41.70;28.40;;;;;;4988980;28;20492;-60
2021/06/15 08:50:38;;;;;;;4.67;4.27;;;41.90;28.80;;;;;;5004579;28;20211;-61
2021/06/15 08:53:04;;;;;;;4.20;3.80;;;42.60;28.20;;;;;;4994835;28;20468;-61
2021/06/15 08:55:32;;;;;;;4.17;3.87;;;43.00;28.40;;;;;;4993129;28;20539;-60
2021/06/15 08:58:20;;;;;;;5.10;4.60;;;43.30;27.90;;;;;;4988163;28;20462;-61
2021/06/15 09:00:46;;;;;;;5.03;4.17;;;43.00;27.90;;;;;;4987347;28;20444;-60
2021/06/15 09:03:13;;;;;;;5.20;4.50;;;42.50;27.80;;;;;;4988228;28;20498;-60
2021/06/15 09:05:40;;;;;;;5.80;4.13;;;42.20;28.00;;;;;;4988638;28;20180;-59
2021/06/15 09:08:11;;;;;;;5.27;4.80;;;41.20;28.70;;;;;;4982169;28;20554;-59
2021/06/15 09:10:40;;;;;;;6.07;4.13;;;41.20;29.60;;;;;;4993299;28;20450;-60
2021/06/15 09:13:27;;;;;;;4.20;3.33;;;42.50;28.40;;;;;;4991711;28;20449;-60
2021/06/15 09:15:52;;;;;;;4.17;3.80;;;42.70;27.40;;;;;;4981513;28;20438;-60
2021/06/15 09:18:29;;;;;;;5.57;4.53;;;42.60;27.40;;;;;;4991344;28;20465;-60
2021/06/15 09:21:03;;;;;;;4.30;4.00;;;42.20;27.30;;;;;;4996099;28;20179;-60
2021/06/15 09:23:37;;;;;;;4.73;4.33;;;41.40;28.20;;;;;;4989425;28;21053;-60
2021/06/15 09:26:06;;;;;;;5.60;3.87;;;41.10;28.60;;;;;;4991339;28;20438;-61
2021/06/15 09:28:33;;;;;;;3.60;3.40;;;40.40;29.80;;;;;;4993262;28;20446;-60
2021/06/15 09:31:08;;;;;;;5.03;4.30;;;40.60;29.60;;;;;;4998946;28;20442;-60
2021/06/15 09:33:43;;;;;;;4.27;3.97;;;41.50;29.20;;;;;;4995767;28;20780;-60
2021/06/15 09:36:15;;;;;;;5.40;3.60;;;38.70;31.00;;;;;;4992683;28;20537;-61
2021/06/15 09:38:54;;;;;;;5.97;3.70;;;39.60;30.80;;;;;;4994500;28;20489;-61
2021/06/15 09:41:40;;;;;;;4.70;3.73;;;39.60;30.20;;;;;;4985040;28;20481;-60
2021/06/15 09:44:25;;;;;;;5.33;3.90;;;39.80;30.00;;;;;;5000940;28;20437;-61
2021/06/15 09:46:53;;;;;;;6.10;4.80;;;40.00;29.60;;;;;;5001800;28;20461;-61
2021/06/15 09:49:41;;;;;;;4.83;3.40;;;39.40;29.70;;;;;;4999184;28;20639;-61
2021/06/15 09:52:10;;;;;;;3.70;3.33;;;40.20;29.80;;;;;;4991420;28;20546;-59
2021/06/15 09:54:40;;;;;;;3.83;3.53;;;40.20;28.70;;;;;;5000406;28;20434;-59
2021/06/15 09:57:06;;;;;;;3.90;3.50;;;40.30;28.60;;;;;;4990267;28;21010;-62
2021/06/15 09:59:32;;;;;;;4.40;4.00;;;39.60;28.90;;;;;;4989610;28;20680;-61
2021/06/15 10:01:58;;;;;;;3.97;3.57;;;40.00;29.40;;;;;;4998180;28;20966;-60
2021/06/15 10:04:25;;;;;;;4.70;4.30;;;39.40;29.30;;;;;;4997336;28;20559;-61
2021/06/15 10:07:29;;;;;;;4.23;3.90;;;39.20;28.70;;;;;;5000582;28;20203;-60
2021/06/15 10:09:55;;;;;;;3.73;3.43;;;37.30;31.20;;;;;;4991723;28;20521;-61
2021/06/15 10:12:22;;;;;;;4.43;4.13;;;38.00;31.00;;;;;;4991694;28;20550;-61
2021/06/15 10:14:48;;;;;;;4.30;3.90;;;38.60;30.00;;;;;;4981339;28;20469;-60
2021/06/15 10:17:14;;;;;;;3.80;3.60;;;39.20;29.80;;;;;;4991641;28;21011;-61
2021/06/15 10:19:41;;;;;;;4.13;3.77;;;39.60;29.50;;;;;;4998272;28;20430;-61
2021/06/15 10:22:08;;;;;;;4.27;3.87;;;39.60;29.50;;;;;;4991369;28;20454;-61
2021/06/15 10:24:36;;;;;;;4.50;4.10;;;39.20;29.60;;;;;;4991604;28;20438;-61
2021/06/15 10:27:04;;;;;;;3.87;3.50;;;39.50;29.40;;;;;;4992116;28;20545;-61
2021/06/15 10:29:30;;;;;;;7.30;3.77;;;40.20;28.60;;;;;;4991347;28;20433;-61
2021/06/15 10:31:57;;;;;;;3.90;3.60;;;39.60;28.20;;;;;;4992033;28;20845;-61
2021/06/15 10:34:44;;;;;;;4.47;3.43;;;39.20;29.00;;;;;;4992276;28;20469;-66
2021/06/15 10:37:33;;;;;;;4.07;3.77;;;39.70;28.90;;;;;;4972484;28;20598;-60
2021/06/15 10:40:22;;;;;;;3.83;3.20;;;39.40;28.50;;;;;;4983776;28;20509;-60
2021/06/15 10:43:19;;;;;;;4.47;3.40;;;39.60;28.50;;;;;;4984876;28;20478;-60
2021/06/15 10:45:52;;;;;;;4.20;3.87;;;40.40;27.50;;;;;;4994756;28;20436;-60
2021/06/15 10:48:20;;;;;;;3.77;3.47;;;40.00;27.00;;;;;;4988181;28;20474;-60
2021/06/15 10:50:48;;;;;;;3.90;3.60;;;39.20;27.40;;;;;;4991337;28;20444;-60
2021/06/15 10:53:15;;;;;;;4.83;3.13;;;39.90;27.80;;;;;;4983206;28;20579;-61
2021/06/15 10:55:50;;;;;;;3.00;2.80;;;39.70;27.50;;;;;;4984172;28;20466;-60
2021/06/15 10:58:31;;;;;;;3.10;2.80;;;39.30;27.60;;;;;;4990117;28;20760;-60
2021/06/15 11:01:16;;;;;;;3.60;3.03;;;39.50;28.00;;;;;;4986425;28;20477;-59
2021/06/15 11:03:49;;;;;;;3.80;3.50;;;39.30;28.00;;;;;;4985239;28;20482;-59
2021/06/15 11:06:16;;;;;;;4.80;2.90;;;39.50;28.40;;;;;;4995402;28;20507;-60
2021/06/15 11:08:41;;;;;;;3.60;3.40;;;39.50;28.20;;;;;;4998678;28;20439;-59
2021/06/15 11:11:16;;;;;;;4.87;2.93;;;38.40;28.70;;;;;;4985399;28;20454;-59
2021/06/15 11:13:47;;;;;;;6.00;3.40;;;38.50;29.40;;;;;;4989516;28;20210;-59
2021/06/15 11:16:37;;;;;;;4.37;3.60;;;38.40;28.80;;;;;;4993502;28;20892;-59
2021/06/15 11:21:44;;;;;;;3.87;2.97;;;38.10;28.60;;;;;;4988808;28;20467;-59
2021/06/15 11:24:32;;;;;;;3.43;3.13;;;37.80;29.20;;;;;;4989424;28;20434;-61
2021/06/15 11:27:00;;;;;;;4.33;3.90;;;37.40;29.20;;;;;;5000074;28;20495;-58
2021/06/15 11:29:37;;;;;;;5.10;3.33;;;37.30;29.40;;;;;;4987047;28;20461;-60
2021/06/15 11:32:15;;;;;;;4.50;3.50;;;37.20;29.90;;;;;;4995803;28;20433;-60
2021/06/15 11:34:58;;;;;;;5.47;3.33;;;36.40;30.10;;;;;;4990729;28;20442;-60
2021/06/15 11:37:28;;;;;;;5.50;5.00;;;35.90;30.10;;;;;;4988908;28;20482;-59
2021/06/15 11:39:55;;;;;;;4.13;3.73;;;35.60;30.70;;;;;;4985635;28;20446;-60
2021/06/15 11:42:28;;;;;;;4.00;3.20;;;35.50;31.10;;;;;;4985943;28;20473;-60
2021/06/15 11:44:57;;;;;;;5.07;3.40;;;35.10;31.00;;;;;;4988884;28;20435;-59
2021/06/15 11:47:35;;;;;;;4.17;3.13;;;34.90;32.40;;;;;;4991724;28;20813;-58
2021/06/15 11:50:07;;;;;;;4.37;3.97;;;34.80;32.40;;;;;;4997424;28;20793;-60
2021/06/15 11:52:34;;;;;;;4.40;4.00;;;34.10;33.30;;;;;;4992035;28;20862;-60
2021/06/15 11:55:00;;;;;;;3.53;3.33;;;33.70;33.90;;;;;;4991581;28;20435;-60
2021/06/15 11:57:26;;;;;;;3.50;3.20;;;33.50;33.80;;;;;;4989185;28;20459;-60
2021/06/15 11:59:52;;;;;;;4.73;4.33;;;33.30;33.60;;;;;;4992478;28;20185;-60
2021/06/15 12:02:19;;;;;;;3.20;2.83;;;33.00;34.60;;;;;;4989547;28;20470;-60
2021/06/15 12:05:10;;;;;;;3.23;3.00;;;32.60;35.60;;;;;;4997423;28;20446;-60
2021/06/15 12:07:40;;;;;;;3.70;3.17;;;32.40;36.10;;;;;;4995321;28;20468;-59
2021/06/15 12:10:14;;;;;;;3.27;2.97;;;32.00;36.60;;;;;;4992819;28;20596;-60
2021/06/15 12:12:56;;;;;;;3.17;2.87;;;32.00;37.30;;;;;;4994843;28;20472;-60
2021/06/15 12:15:41;;;;;;;3.60;3.30;;;31.40;37.20;;;;;;4991138;28;20646;-60
2021/06/15 12:18:21;;;;;;;4.23;3.07;;;31.30;37.90;;;;;;4991511;28;20489;-59
2021/06/15 12:20:54;;;;;;;3.07;2.87;;;31.30;37.40;;;;;;4990955;28;20955;-60
2021/06/15 12:23:28;;;;;;;3.40;3.10;;;31.20;37.50;;;;;;4997375;28;21035;-59
2021/06/15 12:26:13;;;;;;;3.13;2.90;;;31.10;38.60;;;;;;4992532;28;20452;-60
2021/06/15 12:29:00;;;;;;;3.23;2.90;;;31.00;37.50;;;;;;4988483;28;20529;-59
2021/06/15 12:31:33;;;;;;;3.50;3.20;;;31.00;37.30;;;;;;5004777;28;20431;-58
2021/06/15 12:34:03;;;;;;;3.83;2.73;;;31.30;36.80;;;;;;4985688;28;20549;-59
2021/06/15 12:36:32;;;;;;;3.40;3.17;;;31.20;36.80;;;;;;4993975;28;20463;-60
2021/06/15 12:39:11;;;;;;;3.50;3.20;;;31.20;37.50;;;;;;4993789;28;20463;-61
2021/06/15 12:41:39;;;;;;;5.03;2.80;;;31.20;38.00;;;;;;4988394;28;20436;-60
2021/06/15 12:44:05;;;;;;;4.03;3.00;;;31.40;37.40;;;;;;4992076;28;20439;-60
2021/06/15 12:46:33;;;;;;;3.27;2.97;;;31.10;37.40;;;;;;4987279;28;20520;-60
2021/06/15 12:49:15;;;;;;;4.37;3.73;;;31.20;38.00;;;;;;4984718;28;20453;-59
2021/06/15 12:51:56;;;;;;;3.40;3.10;;;31.20;38.60;;;;;;4982594;28;20471;-60
2021/06/15 12:54:25;;;;;;;4.00;3.43;;;31.30;38.00;;;;;;4985547;28;20432;-59
2021/06/15 12:57:07;;;;;;;3.00;2.73;;;31.40;37.50;;;;;;4997582;28;20896;-58
2021/06/15 12:59:39;;;;;;;4.37;2.70;;;31.20;37.20;;;;;;4985065;28;20447;-58
2021/06/15 13:02:22;;;;;;;3.23;3.00;;;31.20;37.20;;;;;;4989350;28;20458;-60
2021/06/15 13:04:53;;;;;;;3.10;2.90;;;31.00;37.10;;;;;;4988633;28;20864;-59